createdAt,value
2023-09-12T11:31:06.750Z,80.04
2023-09-12T11:33:35.093Z,79.39
2023-09-12T11:36:04.954Z,81.34
2023-09-12T11:38:36.284Z,80.77
2023-09-12T11:41:04.081Z,79.10
2023-09-12T11:43:32.936Z,79.77
2023-09-12T11:46:00.816Z,77.96
2023-09-12T11:48:32.415Z,82.83
2023-09-12T11:51:02.559Z,82.22
2023-09-12T11:53:33.764Z,80.83
2023-09-12T11:56:02.101Z,78.75
2023-09-12T11:58:30.042Z,78.68
2023-09-12T12:00:59.056Z,79.24
2023-09-12T12:03:28.431Z,77.21
2023-09-12T12:05:58.528Z,78.52
2023-09-12T12:10:59.711Z,80.18
2023-09-12T12:13:28.761Z,81.86
2023-09-12T12:15:57.044Z,82.30
2023-09-12T12:18:25.170Z,80.86
2023-09-12T12:20:53.190Z,79.27
2023-09-12T12:23:22.446Z,78.82
2023-09-12T12:25:50.299Z,79.60
2023-09-12T12:28:18.618Z,78.32
2023-09-12T12:30:47.992Z,75.71
2023-09-12T12:34:12.786Z,73.97
2023-09-12T12:36:04.789Z,73.55
2023-09-12T12:38:37.437Z,75.50
2023-09-12T12:41:06.710Z,73.10
2023-09-12T12:43:34.589Z,72.56
2023-09-12T12:46:02.592Z,74.02
2023-09-12T12:48:34.152Z,73.76
2023-09-12T12:51:07.617Z,72.99
2023-09-12T12:56:19.845Z,76.30
2023-09-12T12:58:49.752Z,76.18
2023-09-12T13:01:17.948Z,73.87
2023-09-12T13:03:46.907Z,73.76
2023-09-12T13:07:49.695Z,72.13
2023-09-12T13:10:17.440Z,73.49
2023-09-12T13:14:35.137Z,75.71
2023-09-12T13:17:04.057Z,76.28
2023-09-12T13:19:32.704Z,74.32
2023-09-12T13:22:00.579Z,76.17
2023-09-12T13:24:29.221Z,74.00
2023-09-12T13:26:56.971Z,74.20
2023-09-12T13:29:24.742Z,75.30
2023-09-12T13:31:54.071Z,73.56
2023-09-12T13:34:22.051Z,71.60
2023-09-12T13:36:58.121Z,71.40
2023-09-12T13:39:33.986Z,71.60
2023-09-12T13:42:04.290Z,71.46
2023-09-12T13:44:32.067Z,73.43
2023-09-12T13:47:01.286Z,70.93
2023-09-12T13:49:29.262Z,70.18
2023-09-12T13:51:57.094Z,71.37
2023-09-12T13:54:24.955Z,71.23
2023-09-12T13:56:52.692Z,70.69
2023-09-12T13:59:21.692Z,66.09
2023-09-12T14:01:49.720Z,65.37
2023-09-12T14:04:19.262Z,65.52
2023-09-12T14:06:47.487Z,65.68
2023-09-12T14:09:20.964Z,67.25
2023-09-12T14:11:51.257Z,65.94
2023-09-12T14:14:20.872Z,64.31
2023-09-12T14:16:49.771Z,63.82
2023-09-12T14:19:20.712Z,62.30
2023-09-12T14:21:49.480Z,65.26
2023-09-12T14:24:19.100Z,66.61
2023-09-12T14:26:49.930Z,63.28
2023-09-12T14:29:17.932Z,66.39
2023-09-12T14:31:51.305Z,63.00
2023-09-12T14:34:20.836Z,62.22
2023-09-12T14:36:49.002Z,61.71
2023-09-12T14:39:18.319Z,61.77
2023-09-12T14:41:50.806Z,64.42
2023-09-12T14:44:18.755Z,66.55
2023-09-12T14:46:46.817Z,62.96
2023-09-12T14:49:15.127Z,62.96
2023-09-12T14:51:44.485Z,63.50
2023-09-12T14:54:12.296Z,64.20
2023-09-12T14:56:40.359Z,66.49
2023-09-12T14:59:08.200Z,64.35
2023-09-12T15:01:36.638Z,64.05
2023-09-12T15:04:04.719Z,64.44
2023-09-12T15:06:34.495Z,64.76
2023-09-12T15:09:03.968Z,64.12
2023-09-12T15:11:32.434Z,63.04
2023-09-12T15:14:00.347Z,63.14
2023-09-12T15:16:28.439Z,63.02
2023-09-12T15:18:56.361Z,63.60
2023-09-12T15:21:24.179Z,66.35
2023-09-12T15:23:51.957Z,67.19
2023-09-12T15:26:21.121Z,67.02
2023-09-12T15:28:49.025Z,66.83
2023-09-12T15:31:16.885Z,65.70
2023-09-12T15:33:45.033Z,65.74
2023-09-12T15:36:13.129Z,65.65
2023-09-12T15:38:40.928Z,66.69
2023-09-12T16:41:39.524Z,74.93
2023-09-12T16:44:07.936Z,75.17
2023-09-12T16:46:35.873Z,73.09
2023-09-12T16:49:03.981Z,72.72
2023-09-12T16:51:31.971Z,71.13
2023-09-12T16:53:59.852Z,69.99
2023-09-12T16:56:27.660Z,70.28
2023-09-12T16:58:56.824Z,69.64
2023-09-12T17:01:24.800Z,70.50
2023-09-12T17:04:00.293Z,69.46
2023-09-12T17:06:30.689Z,69.36
2023-09-12T17:09:00.618Z,69.64
2023-09-12T17:11:28.462Z,68.38
2023-09-12T17:13:57.808Z,71.83
2023-09-12T17:16:25.661Z,71.01
2023-09-12T17:18:53.761Z,70.88
2023-09-12T17:21:21.575Z,71.78
2023-09-12T17:23:49.287Z,73.19
2023-09-12T17:26:17.889Z,74.24
2023-09-12T17:28:45.716Z,74.07
2023-09-12T17:31:16.200Z,74.79
2023-09-12T17:33:44.318Z,73.40
2023-09-12T17:36:12.337Z,73.97
2023-09-12T17:38:40.020Z,74.56
2023-09-12T17:41:07.767Z,75.14
2023-09-12T17:43:37.762Z,74.61
2023-09-12T17:46:11.387Z,75.79
2023-09-12T17:48:42.427Z,76.33
2023-09-12T17:51:10.856Z,75.60
2023-09-12T17:53:38.697Z,75.64
2023-09-12T17:56:06.689Z,75.24
2023-09-12T17:58:34.690Z,73.66
2023-09-12T18:01:04.867Z,73.17
2023-09-12T18:03:38.712Z,74.14
2023-09-12T18:06:08.138Z,74.20
2023-09-12T18:08:36.013Z,74.39
2023-09-12T18:11:04.692Z,74.08
2023-09-12T18:13:32.569Z,74.21
2023-09-12T18:16:00.452Z,73.92
2023-09-12T18:18:28.383Z,73.99
2023-09-12T18:20:57.612Z,74.36
2023-09-12T18:23:26.875Z,74.98
2023-09-12T18:25:54.694Z,74.62
2023-09-12T18:28:39.979Z,74.61
2023-09-12T18:31:08.454Z,74.91
2023-09-12T18:33:36.505Z,74.98
2023-09-12T18:36:05.509Z,75.68
2023-09-12T18:38:35.837Z,75.52
2023-09-12T18:41:03.685Z,75.41
2023-09-12T18:43:31.508Z,75.44
2023-09-12T18:45:59.683Z,76.24
2023-09-12T18:48:27.541Z,76.93
2023-09-12T18:50:55.351Z,75.88
2023-09-12T18:53:23.169Z,75.40
2023-09-12T18:55:52.417Z,75.47
2023-09-12T18:58:20.224Z,76.19
2023-09-12T19:00:48.028Z,76.07
2023-09-12T19:03:16.547Z,76.54
2023-09-12T19:05:44.646Z,76.83
2023-09-12T19:08:12.504Z,77.19
2023-09-12T19:10:40.502Z,77.56
2023-09-12T19:13:10.459Z,78.16
2023-09-12T19:15:38.284Z,78.82
2023-09-12T19:18:08.143Z,79.13
2023-09-12T19:20:36.319Z,79.49
2023-09-12T19:23:04.858Z,79.83
2023-09-12T19:25:32.731Z,80.17
2023-09-12T19:28:01.937Z,80.74
2023-09-12T19:30:32.894Z,81.12
2023-09-12T19:33:01.537Z,81.51
2023-09-12T19:35:29.555Z,81.39
2023-09-12T19:38:02.491Z,81.72
2023-09-12T19:40:30.340Z,81.33
2023-09-12T19:42:58.156Z,81.52
2023-09-12T19:45:26.078Z,81.69
2023-09-12T19:48:01.653Z,82.14
2023-09-12T19:50:31.764Z,82.42
2023-09-12T19:52:59.857Z,82.41
2023-09-12T19:55:27.704Z,82.32
2023-09-12T19:57:55.598Z,82.28
2023-09-12T20:00:23.404Z,82.89
2023-09-12T20:02:51.225Z,82.54
2023-09-12T20:05:22.865Z,82.75
2023-09-12T20:07:51.768Z,82.58
2023-09-12T20:10:21.663Z,83.05
2023-09-12T20:12:50.348Z,83.07
2023-09-12T20:15:18.565Z,82.62
2023-09-12T20:17:49.559Z,83.06
2023-09-12T20:20:17.457Z,83.13
2023-09-12T20:22:46.936Z,83.37
2023-09-12T20:25:14.731Z,82.94
2023-09-12T20:27:42.514Z,82.69
2023-09-12T20:30:11.312Z,82.56
2023-09-12T20:32:52.006Z,82.83
2023-09-12T20:35:26.523Z,83.30
2023-09-12T20:37:57.576Z,83.33
2023-09-12T20:40:26.102Z,83.37
2023-09-12T20:42:54.180Z,83.48
2023-09-12T20:45:22.321Z,83.57
2023-09-12T20:47:52.429Z,83.45
2023-09-12T20:50:26.498Z,83.49
2023-09-12T20:52:58.784Z,83.84
2023-09-12T20:55:26.964Z,83.99
2023-09-12T20:57:55.155Z,84.09
2023-09-12T21:00:23.621Z,84.26
2023-09-12T21:02:51.841Z,84.60
2023-09-12T21:05:19.922Z,84.68
2023-09-12T21:07:48.076Z,84.98
2023-09-12T21:10:17.394Z,85.20
2023-09-12T21:12:45.474Z,85.58
2023-09-12T21:15:13.397Z,85.73
2023-09-12T21:17:41.232Z,85.49
2023-09-12T21:20:09.941Z,85.59
2023-09-12T21:22:38.270Z,85.07
2023-09-12T21:25:06.715Z,84.75
2023-09-12T21:27:35.934Z,84.73
2023-09-12T21:30:05.630Z,84.56
2023-09-12T21:32:32.762Z,84.95
2023-09-12T21:35:11.235Z,85.05
2023-09-12T21:37:39.075Z,84.82
2023-09-12T21:40:08.896Z,85.43
2023-09-12T21:42:38.215Z,85.35
2023-09-12T21:45:07.167Z,86.05
2023-09-12T21:47:39.392Z,85.84
2023-09-12T21:50:08.168Z,86.39
2023-09-12T21:52:36.170Z,86.29
2023-09-12T21:55:05.567Z,86.47
2023-09-12T21:57:34.041Z,86.31
2023-09-12T22:00:17.576Z,86.61
2023-09-12T22:02:46.141Z,86.76
2023-09-12T22:05:14.052Z,86.53
2023-09-12T22:07:41.803Z,86.99
2023-09-12T22:10:10.329Z,87.04
2023-09-12T22:12:38.404Z,87.38
2023-09-12T22:15:09.972Z,86.90
2023-09-12T22:17:38.044Z,87.13
2023-09-12T22:20:06.815Z,87.22
2023-09-12T22:22:35.001Z,86.96
2023-09-12T22:25:02.885Z,87.36
2023-09-12T22:27:30.680Z,87.51
2023-09-12T22:29:58.628Z,88.12
2023-09-12T22:32:27.896Z,88.35
2023-09-12T22:34:55.664Z,88.03
2023-09-12T22:37:23.449Z,88.29
2023-09-12T22:39:52.323Z,88.61
2023-09-12T22:42:20.134Z,88.33
2023-09-12T22:44:47.835Z,88.82
2023-09-12T22:47:15.808Z,88.87
2023-09-12T22:49:45.256Z,89.01
2023-09-12T22:52:13.368Z,89.16
2023-09-12T22:54:41.431Z,89.47
2023-09-12T22:57:09.295Z,89.72
2023-09-12T22:59:37.214Z,89.16
2023-09-12T23:02:05.351Z,89.64
2023-09-12T23:04:33.335Z,89.72
2023-09-12T23:07:03.530Z,89.84
2023-09-12T23:09:31.466Z,89.49
2023-09-12T23:11:59.313Z,89.58
2023-09-12T23:14:27.555Z,89.68
2023-09-12T23:16:55.477Z,89.68
2023-09-12T23:19:23.241Z,89.93
2023-09-12T23:21:51.488Z,89.85
2023-09-12T23:24:20.711Z,90.25
2023-09-12T23:26:50.056Z,89.66
2023-09-12T23:29:17.889Z,89.84
2023-09-12T23:31:45.851Z,90.01
2023-09-12T23:34:13.815Z,90.64
2023-09-12T23:36:41.571Z,90.26
2023-09-12T23:39:09.352Z,90.58
2023-09-12T23:41:38.905Z,90.72
2023-09-12T23:44:06.888Z,90.66
2023-09-12T23:46:34.858Z,90.39
2023-09-12T23:49:04.051Z,90.52
2023-09-12T23:51:31.881Z,90.63
2023-09-12T23:53:59.674Z,90.43
2023-09-12T23:56:27.410Z,90.30
2023-09-12T23:58:56.486Z,90.52
